createdAt,value
2022-07-29T00:01:03.818Z,1.50
2022-07-29T00:03:32.657Z,1.73
2022-07-29T00:06:09.670Z,1.57
2022-07-29T00:08:38.345Z,2.10
2022-07-29T00:11:13.772Z,2.00
2022-07-29T00:13:45.324Z,2.00
2022-07-29T00:16:23.003Z,2.00
2022-07-29T00:19:00.626Z,1.83
2022-07-29T00:21:39.978Z,1.87
2022-07-29T00:24:08.727Z,1.90
2022-07-29T00:26:43.604Z,1.57
2022-07-29T00:29:33.554Z,1.73
2022-07-29T00:32:07.016Z,1.80
2022-07-29T00:34:58.977Z,1.80
2022-07-29T00:37:28.787Z,1.60
2022-07-29T00:40:03.738Z,1.90
2022-07-29T00:42:32.160Z,2.03
2022-07-29T00:45:06.948Z,1.70
2022-07-29T00:47:35.435Z,2.10
2022-07-29T00:50:10.757Z,1.80
2022-07-29T00:52:42.541Z,1.60
2022-07-29T00:55:19.772Z,1.67
2022-07-29T00:57:48.419Z,1.97
2022-07-29T01:00:25.660Z,1.70
2022-07-29T01:02:54.463Z,2.17
2022-07-29T01:05:50.160Z,2.13
2022-07-29T01:08:22.587Z,2.10
2022-07-29T01:10:59.814Z,2.10
2022-07-29T01:13:28.936Z,2.20
2022-07-29T01:16:07.806Z,2.10
2022-07-29T01:18:47.114Z,2.07
2022-07-29T01:21:45.803Z,1.90
2022-07-29T01:24:32.296Z,2.60
2022-07-29T01:27:15.665Z,2.07
2022-07-29T01:29:51.786Z,2.13
2022-07-29T01:32:31.094Z,2.00
2022-07-29T01:35:05.685Z,2.20
2022-07-29T01:37:51.780Z,2.10
2022-07-29T01:40:24.658Z,2.10
2022-07-29T01:43:03.686Z,2.40
2022-07-29T01:45:41.729Z,2.23
2022-07-29T01:48:21.807Z,2.07
2022-07-29T01:50:54.340Z,2.00
2022-07-29T01:53:38.726Z,2.27
2022-07-29T01:56:09.081Z,2.10
2022-07-29T01:58:46.844Z,2.00
2022-07-29T02:01:18.450Z,2.27
2022-07-29T02:03:54.821Z,2.10
2022-07-29T02:06:25.910Z,1.80
2022-07-29T02:09:01.730Z,1.83
2022-07-29T02:11:32.664Z,2.50
2022-07-29T02:14:08.664Z,2.00
2022-07-29T02:16:41.298Z,2.20
2022-07-29T02:19:23.860Z,2.20
2022-07-29T02:21:55.090Z,2.30
2022-07-29T02:24:33.018Z,2.47
2022-07-29T02:27:03.276Z,2.33
2022-07-29T02:29:41.021Z,2.50
2022-07-29T02:32:12.650Z,2.60
2022-07-29T02:34:51.058Z,2.40
2022-07-29T02:37:20.190Z,2.60
2022-07-29T02:39:58.084Z,2.80
2022-07-29T02:42:29.109Z,2.60
2022-07-29T02:45:04.774Z,2.83
2022-07-29T02:47:42.069Z,2.97
2022-07-29T02:50:22.771Z,2.60
2022-07-29T02:52:57.273Z,2.50
2022-07-29T02:55:36.782Z,2.30
2022-07-29T02:58:10.615Z,2.47
2022-07-29T03:00:46.884Z,2.60
2022-07-29T03:03:20.468Z,2.60
2022-07-29T03:05:55.783Z,2.40
2022-07-29T03:08:25.569Z,2.17
2022-07-29T03:11:01.891Z,2.30
2022-07-29T03:13:31.941Z,2.50
2022-07-29T03:16:10.775Z,2.50
2022-07-29T03:19:00.877Z,2.40
2022-07-29T03:21:36.133Z,2.43
2022-07-29T03:24:12.511Z,2.50
2022-07-29T03:26:47.913Z,2.13
2022-07-29T03:29:15.992Z,2.47
2022-07-29T03:31:54.909Z,2.30
2022-07-29T03:34:25.084Z,2.10
2022-07-29T03:36:59.779Z,2.03
2022-07-29T03:39:33.694Z,2.53
2022-07-29T03:42:09.801Z,2.50
2022-07-29T03:44:39.622Z,2.20
2022-07-29T03:47:17.187Z,2.10
2022-07-29T03:49:50.756Z,2.27
2022-07-29T03:52:26.158Z,2.20
2022-07-29T03:54:55.468Z,2.40
2022-07-29T03:57:33.833Z,2.73
2022-07-29T04:00:05.274Z,2.37
2022-07-29T04:02:40.939Z,2.70
2022-07-29T04:05:16.981Z,2.53
2022-07-29T04:07:52.929Z,2.30
2022-07-29T04:10:25.246Z,2.67
2022-07-29T04:13:06.842Z,2.07
2022-07-29T04:15:35.877Z,2.27
2022-07-29T04:18:10.994Z,2.40
2022-07-29T04:20:47.434Z,2.63
2022-07-29T04:23:22.946Z,2.63
2022-07-29T04:25:51.234Z,2.37
2022-07-29T04:28:26.954Z,2.03
2022-07-29T04:30:55.487Z,2.37
2022-07-29T04:33:31.232Z,2.73
2022-07-29T04:36:01.426Z,2.50
2022-07-29T04:38:36.000Z,2.40
2022-07-29T04:41:04.529Z,2.40
2022-07-29T04:43:41.819Z,2.30
2022-07-29T04:46:10.272Z,2.60
2022-07-29T04:48:44.977Z,2.50
2022-07-29T04:51:15.078Z,2.43
2022-07-29T04:53:50.214Z,2.50
2022-07-29T04:56:18.682Z,2.30
2022-07-29T04:58:53.909Z,2.50
2022-07-29T05:01:22.549Z,2.60
2022-07-29T05:04:00.484Z,2.53
2022-07-29T05:06:30.973Z,2.30
2022-07-29T05:09:05.991Z,2.40
2022-07-29T05:11:34.376Z,2.43
2022-07-29T05:14:09.229Z,2.37
2022-07-29T05:16:37.982Z,2.33
2022-07-29T05:19:14.538Z,2.60
2022-07-29T05:21:53.335Z,2.70
2022-07-29T05:24:29.363Z,2.50
2022-07-29T05:26:57.771Z,2.50
2022-07-29T05:29:44.461Z,2.50
2022-07-29T05:32:14.419Z,2.70
2022-07-29T05:34:51.812Z,2.60
2022-07-29T05:37:25.245Z,2.73
2022-07-29T05:39:59.930Z,2.90
2022-07-29T05:42:30.279Z,2.80
2022-07-29T05:45:05.004Z,2.67
2022-07-29T05:47:33.563Z,2.73
2022-07-29T05:50:09.035Z,2.87
2022-07-29T05:52:39.001Z,3.03
2022-07-29T05:55:15.075Z,2.90
2022-07-29T05:57:44.523Z,3.33
2022-07-29T06:00:21.312Z,3.00
2022-07-29T06:02:49.833Z,2.90
2022-07-29T06:05:25.034Z,3.37
2022-07-29T06:07:55.208Z,3.13
2022-07-29T06:10:30.372Z,3.10
2022-07-29T06:12:58.927Z,3.27
2022-07-29T06:15:34.090Z,3.00
2022-07-29T06:18:02.712Z,3.40
2022-07-29T06:20:45.057Z,2.80
2022-07-29T06:23:15.328Z,3.17
2022-07-29T06:25:50.077Z,2.90
2022-07-29T06:28:18.509Z,3.33
2022-07-29T06:30:52.957Z,3.20
2022-07-29T06:33:21.677Z,3.30
2022-07-29T06:35:57.010Z,3.07
2022-07-29T06:38:33.807Z,3.17
2022-07-29T06:41:10.351Z,3.33
2022-07-29T06:43:45.584Z,3.57
2022-07-29T06:46:27.006Z,3.13
2022-07-29T06:48:55.835Z,3.10
2022-07-29T06:51:31.023Z,3.60
2022-07-29T06:54:03.432Z,3.10
2022-07-29T06:56:40.484Z,2.97
2022-07-29T06:59:11.196Z,3.70
2022-07-29T07:01:46.996Z,3.63
2022-07-29T07:04:16.044Z,3.57
2022-07-29T07:06:52.139Z,3.13
2022-07-29T07:09:22.033Z,3.60
2022-07-29T07:11:57.033Z,3.70
2022-07-29T07:14:27.768Z,3.53
2022-07-29T07:17:03.624Z,3.20
2022-07-29T07:19:38.864Z,3.10
2022-07-29T07:22:14.013Z,3.00
2022-07-29T07:24:43.947Z,3.27
2022-07-29T07:27:19.012Z,3.27
2022-07-29T07:29:54.129Z,3.43
2022-07-29T07:32:22.565Z,3.17
2022-07-29T07:34:58.069Z,3.27
2022-07-29T07:37:27.638Z,3.20
2022-07-29T07:40:04.019Z,2.90
2022-07-29T07:42:32.615Z,3.10
2022-07-29T07:45:16.187Z,3.07
2022-07-29T07:47:45.869Z,2.93
2022-07-29T07:50:23.375Z,3.33
2022-07-29T07:52:54.435Z,3.27
2022-07-29T07:55:47.547Z,3.47
2022-07-29T07:58:19.999Z,2.90
2022-07-29T08:00:55.078Z,3.20
2022-07-29T08:03:23.574Z,3.17
2022-07-29T08:05:59.148Z,3.27
2022-07-29T08:08:27.824Z,3.40
2022-07-29T08:11:09.398Z,3.40
2022-07-29T08:13:40.235Z,3.30
2022-07-29T08:16:29.264Z,2.93
2022-07-29T08:19:17.388Z,3.20
2022-07-29T08:21:52.398Z,2.73
2022-07-29T08:24:38.696Z,2.90
2022-07-29T08:27:33.820Z,2.73
2022-07-29T08:30:03.823Z,2.97
2022-07-29T08:32:55.740Z,2.53
2022-07-29T08:35:25.773Z,2.70
2022-07-29T08:38:01.109Z,2.60
2022-07-29T08:40:32.651Z,2.43
2022-07-29T08:43:14.497Z,2.53
2022-07-29T08:45:48.020Z,2.60
2022-07-29T08:48:24.113Z,2.40
2022-07-29T08:50:59.032Z,2.47
2022-07-29T08:53:37.230Z,2.43
2022-07-29T08:56:06.144Z,2.57
2022-07-29T08:58:43.190Z,2.50
2022-07-29T09:01:19.543Z,2.10
2022-07-29T09:03:56.279Z,2.40
2022-07-29T09:06:28.983Z,2.20
2022-07-29T09:09:08.452Z,2.10
2022-07-29T09:11:37.196Z,2.40
2022-07-29T09:14:14.213Z,2.40
2022-07-29T09:16:52.997Z,2.50
2022-07-29T09:19:37.460Z,2.60
2022-07-29T09:22:20.279Z,2.40
2022-07-29T09:24:49.541Z,2.70
2022-07-29T09:27:30.241Z,2.23
2022-07-29T09:30:01.941Z,2.20
2022-07-29T09:32:37.262Z,2.10
2022-07-29T09:35:22.708Z,2.43
2022-07-29T09:37:58.264Z,2.00
2022-07-29T09:40:28.028Z,2.30
2022-07-29T09:43:05.182Z,2.27
2022-07-29T09:45:36.452Z,2.30
2022-07-29T09:48:25.178Z,1.87
2022-07-29T09:50:54.984Z,1.93
2022-07-29T09:53:41.443Z,1.90
2022-07-29T09:56:11.969Z,2.50
2022-07-29T09:58:47.516Z,2.37
2022-07-29T10:01:17.493Z,2.10
2022-07-29T10:04:02.530Z,1.80
2022-07-29T10:06:31.107Z,1.63
2022-07-29T10:09:17.166Z,1.80
2022-07-29T10:12:05.512Z,1.70
2022-07-29T10:14:41.301Z,1.70
2022-07-29T10:17:12.768Z,1.90
2022-07-29T10:19:55.194Z,1.50
2022-07-29T10:22:51.492Z,1.33
2022-07-29T10:25:20.492Z,1.50
2022-07-29T10:27:52.218Z,1.40
2022-07-29T10:30:28.536Z,1.60
2022-07-29T10:33:20.839Z,1.75
2022-07-29T10:36:21.219Z,1.60
2022-07-29T10:39:03.166Z,1.70
2022-07-29T10:42:05.278Z,1.77
2022-07-29T10:44:34.811Z,1.60
2022-07-29T10:47:10.232Z,1.80
2022-07-29T10:53:04.822Z,1.58
2022-07-29T10:55:43.390Z,1.48
2022-07-29T10:58:24.579Z,1.90
2022-07-29T11:00:54.764Z,1.42
2022-07-29T11:03:57.190Z,1.40
2022-07-29T11:06:31.113Z,1.55
2022-07-29T11:09:37.581Z,1.70
2022-07-29T11:12:27.175Z,1.70
2022-07-29T11:15:08.272Z,1.48
2022-07-29T11:18:06.422Z,1.40
2022-07-29T11:20:52.244Z,1.60
2022-07-29T11:23:27.542Z,1.40
2022-07-29T11:26:23.593Z,1.60
2022-07-29T11:29:01.948Z,1.73
2022-07-29T11:31:46.362Z,1.75
2022-07-29T11:34:27.885Z,1.33
2022-07-29T11:37:28.281Z,1.35
2022-07-29T11:40:21.340Z,1.33
2022-07-29T11:42:58.396Z,1.30
2022-07-29T11:45:48.642Z,1.33
2022-07-29T11:51:14.899Z,1.50
2022-07-29T11:53:59.000Z,1.45
2022-07-29T11:56:34.229Z,1.27
2022-07-29T11:59:17.292Z,1.45
2022-07-29T12:02:18.026Z,1.40
2022-07-29T12:04:58.610Z,1.40
2022-07-29T12:07:34.795Z,1.30
2022-07-29T12:10:19.498Z,1.40
2022-07-29T12:12:55.588Z,1.50
2022-07-29T12:15:46.039Z,1.48
2022-07-29T12:18:24.149Z,1.80
2022-07-29T12:21:07.285Z,1.50
2022-07-29T12:23:37.037Z,1.80
2022-07-29T12:26:21.911Z,1.70
2022-07-29T12:28:55.896Z,1.60
2022-07-29T12:31:43.757Z,1.63
2022-07-29T12:34:14.586Z,1.77
2022-07-29T12:36:50.413Z,1.63
2022-07-29T12:39:21.878Z,1.90
2022-07-29T12:42:03.273Z,1.58
2022-07-29T12:44:48.913Z,1.65
2022-07-29T12:47:24.433Z,1.90
2022-07-29T12:49:53.672Z,1.80
2022-07-29T12:52:39.418Z,1.70
2022-07-29T12:55:09.153Z,1.55
2022-07-29T12:57:55.341Z,1.58
2022-07-29T13:00:27.296Z,1.42
2022-07-29T13:03:05.432Z,1.70
2022-07-29T13:05:48.575Z,1.48
2022-07-29T13:08:26.351Z,1.55
2022-07-29T13:10:56.495Z,1.73
2022-07-29T13:13:31.454Z,1.60
2022-07-29T13:16:10.395Z,1.75
2022-07-29T13:18:45.464Z,1.60
2022-07-29T13:21:21.914Z,1.63
2022-07-29T13:23:56.485Z,2.00
2022-07-29T13:26:25.206Z,1.50
2022-07-29T13:29:00.465Z,1.50
2022-07-29T13:31:30.495Z,1.50
2022-07-29T13:34:05.484Z,1.65
2022-07-29T13:36:36.713Z,1.60
2022-07-29T13:39:15.481Z,1.40
2022-07-29T13:41:44.251Z,1.50
2022-07-29T13:44:20.341Z,1.40
2022-07-29T13:46:51.023Z,1.50
2022-07-29T13:49:26.493Z,1.50
2022-07-29T13:51:55.818Z,1.30
2022-07-29T13:54:31.470Z,1.67
2022-07-29T13:57:00.477Z,1.77
2022-07-29T13:59:35.400Z,1.60
2022-07-29T14:02:05.612Z,1.50
2022-07-29T14:04:41.371Z,1.65
2022-07-29T14:07:11.055Z,1.40
2022-07-29T14:09:51.559Z,1.70
2022-07-29T14:12:20.177Z,1.40
2022-07-29T14:14:55.761Z,1.33
2022-07-29T14:17:25.884Z,1.50
2022-07-29T14:20:00.572Z,1.40
2022-07-29T14:22:40.145Z,1.63
2022-07-29T14:25:17.433Z,1.40
2022-07-29T14:27:46.335Z,1.30
2022-07-29T14:30:22.551Z,1.73
2022-07-29T14:32:52.491Z,1.73
2022-07-29T14:35:27.530Z,1.88
2022-07-29T14:37:56.094Z,1.80
2022-07-29T14:40:31.744Z,1.60
2022-07-29T14:43:00.219Z,1.50
2022-07-29T14:45:35.560Z,1.60
2022-07-29T14:48:06.127Z,1.30
2022-07-29T14:50:41.552Z,1.58
2022-07-29T14:53:10.287Z,1.45
2022-07-29T14:55:45.599Z,1.40
2022-07-29T14:58:16.582Z,1.50
2022-07-29T15:00:51.498Z,1.60
2022-07-29T15:03:22.894Z,1.30
2022-07-29T15:05:59.595Z,1.40
2022-07-29T15:08:30.903Z,1.50
2022-07-29T15:11:07.570Z,1.52
2022-07-29T15:13:36.175Z,1.60
2022-07-29T15:16:11.663Z,1.30
2022-07-29T15:18:41.872Z,1.63
2022-07-29T15:21:16.503Z,1.60
2022-07-29T15:23:45.237Z,1.42
2022-07-29T15:26:20.402Z,1.48
2022-07-29T15:28:48.989Z,1.50
2022-07-29T15:31:24.801Z,1.45
2022-07-29T15:33:58.687Z,1.50
2022-07-29T15:36:51.501Z,1.50
2022-07-29T15:39:21.082Z,1.48
2022-07-29T15:41:56.713Z,1.73
2022-07-29T15:44:25.439Z,1.50
2022-07-29T15:47:12.600Z,1.60
2022-07-29T15:49:49.630Z,1.83
2022-07-29T15:52:26.243Z,1.60
2022-07-29T15:55:02.818Z,1.90
2022-07-29T15:57:31.225Z,1.70
2022-07-29T16:00:06.615Z,1.77
2022-07-29T16:02:39.502Z,1.80
2022-07-29T16:05:16.611Z,1.73
2022-07-29T16:07:45.047Z,2.00
2022-07-29T16:10:20.516Z,1.90
2022-07-29T16:12:48.835Z,1.88
2022-07-29T16:15:24.825Z,1.95
2022-07-29T16:17:54.576Z,2.13
2022-07-29T16:20:37.465Z,1.73
2022-07-29T16:23:06.012Z,1.73
2022-07-29T16:25:59.227Z,1.80
2022-07-29T16:28:29.117Z,1.48
2022-07-29T16:31:04.529Z,2.08
2022-07-29T16:33:54.585Z,2.15
2022-07-29T16:36:29.640Z,1.90
2022-07-29T16:38:57.723Z,1.73
2022-07-29T16:41:32.629Z,2.00
2022-07-29T16:44:01.155Z,2.00
2022-07-29T16:46:35.695Z,1.88
2022-07-29T16:49:05.848Z,2.10
2022-07-29T16:51:42.851Z,2.72
2022-07-29T16:54:12.179Z,2.40
2022-07-29T16:56:47.905Z,2.08
2022-07-29T16:59:16.707Z,1.90
2022-07-29T17:01:52.024Z,1.92
2022-07-29T17:04:20.612Z,2.00
2022-07-29T17:06:59.997Z,2.17
2022-07-29T17:09:29.605Z,2.05
2022-07-29T17:12:04.676Z,1.88
2022-07-29T17:14:33.285Z,2.00
2022-07-29T17:17:13.589Z,2.03
2022-07-29T17:20:01.594Z,2.13
2022-07-29T17:22:38.607Z,1.80
2022-07-29T17:25:08.558Z,1.90
2022-07-29T17:27:43.569Z,1.93
2022-07-29T17:30:12.779Z,1.50
2022-07-29T17:32:47.746Z,1.60
2022-07-29T17:35:33.404Z,1.70
2022-07-29T17:38:09.697Z,1.80
2022-07-29T17:40:38.387Z,1.60
2022-07-29T17:43:15.592Z,1.80
2022-07-29T17:45:49.914Z,1.67
2022-07-29T17:48:25.581Z,1.80
2022-07-29T17:50:54.572Z,1.73
2022-07-29T17:53:31.595Z,1.43
2022-07-29T17:56:00.153Z,1.70
2022-07-29T17:58:36.720Z,1.50
2022-07-29T18:01:05.574Z,1.50
2022-07-29T18:03:40.995Z,1.70
2022-07-29T18:06:10.764Z,2.03
2022-07-29T18:08:47.564Z,1.70
2022-07-29T18:11:16.015Z,1.80
2022-07-29T18:13:50.952Z,1.67
2022-07-29T18:16:19.889Z,1.90
2022-07-29T18:18:54.651Z,1.80
2022-07-29T18:21:42.601Z,1.50
2022-07-29T18:24:31.768Z,1.73
2022-07-29T18:27:00.766Z,1.60
2022-07-29T18:29:36.974Z,1.50
2022-07-29T18:32:05.727Z,1.63
2022-07-29T18:34:40.980Z,1.80
2022-07-29T18:37:09.444Z,1.70
2022-07-29T18:39:45.790Z,1.70
2022-07-29T18:42:14.545Z,1.80
2022-07-29T18:44:49.639Z,1.60
2022-07-29T18:47:18.175Z,1.70
2022-07-29T18:49:52.804Z,1.40
2022-07-29T18:52:21.224Z,1.60
2022-07-29T18:54:58.343Z,1.50
2022-07-29T18:57:54.504Z,1.67
2022-07-29T19:00:22.699Z,1.57
2022-07-29T19:02:51.372Z,1.67
2022-07-29T19:05:26.756Z,1.77
2022-07-29T19:07:56.324Z,1.70
2022-07-29T19:10:32.986Z,1.67
2022-07-29T19:13:01.809Z,1.80
2022-07-29T19:15:36.837Z,1.50
2022-07-29T19:18:05.898Z,1.40
2022-07-29T19:20:41.012Z,1.70
2022-07-29T19:23:16.172Z,1.83
2022-07-29T19:25:53.375Z,1.70
2022-07-29T19:28:22.476Z,1.80
2022-07-29T19:30:57.843Z,1.70
2022-07-29T19:33:26.392Z,1.73
2022-07-29T19:36:02.024Z,2.30
2022-07-29T19:38:30.593Z,1.87
2022-07-29T19:41:06.830Z,1.80
2022-07-29T19:43:49.780Z,1.80
2022-07-29T19:46:27.873Z,2.03
2022-07-29T19:48:56.864Z,1.90
2022-07-29T19:51:32.046Z,2.00
2022-07-29T19:54:00.606Z,2.10
2022-07-29T19:56:38.832Z,1.70
2022-07-29T19:59:10.264Z,1.77
2022-07-29T20:01:44.761Z,1.60
2022-07-29T20:04:13.465Z,1.40
2022-07-29T20:06:49.055Z,2.43
2022-07-29T20:09:20.716Z,2.40
2022-07-29T20:11:58.117Z,2.47
2022-07-29T20:14:26.771Z,2.90
2022-07-29T20:17:02.008Z,2.43
2022-07-29T20:19:31.023Z,3.33
2022-07-29T20:22:05.916Z,3.70
2022-07-29T20:24:34.537Z,2.20
2022-07-29T20:27:13.421Z,1.80
2022-07-29T20:29:42.603Z,1.80
2022-07-29T20:32:18.861Z,1.73
2022-07-29T20:34:47.650Z,1.70
2022-07-29T20:37:22.763Z,1.80
2022-07-29T20:39:51.270Z,1.90
2022-07-29T20:42:27.873Z,3.37
2022-07-29T20:44:57.891Z,2.63
2022-07-29T20:47:33.121Z,2.03
2022-07-29T20:50:01.896Z,2.10
2022-07-29T20:52:37.352Z,1.80
2022-07-29T20:55:06.620Z,1.80
2022-07-29T20:57:42.902Z,2.03
2022-07-29T21:00:12.442Z,2.50
2022-07-29T21:02:48.015Z,3.03
2022-07-29T21:05:16.683Z,3.10
2022-07-29T21:07:55.320Z,3.10
2022-07-29T21:10:26.317Z,2.40
2022-07-29T21:13:02.896Z,2.30
2022-07-29T21:15:32.607Z,1.97
2022-07-29T21:18:09.899Z,1.70
2022-07-29T21:20:45.267Z,1.80
2022-07-29T21:23:26.920Z,1.77
2022-07-29T21:25:56.326Z,3.97
2022-07-29T21:28:33.961Z,3.97
2022-07-29T21:31:04.669Z,3.03
2022-07-29T21:33:40.923Z,3.03
2022-07-29T21:36:42.719Z,2.80
2022-07-29T21:39:07.341Z,2.60
2022-07-29T21:41:44.213Z,1.90
2022-07-29T21:44:13.986Z,1.90
2022-07-29T21:46:49.143Z,1.50
2022-07-29T21:49:18.804Z,1.77
2022-07-29T21:51:53.828Z,1.83
2022-07-29T21:54:22.780Z,2.00
2022-07-29T21:56:58.933Z,1.90
2022-07-29T21:59:30.797Z,1.90
2022-07-29T22:02:09.177Z,2.00
2022-07-29T22:04:37.722Z,1.83
2022-07-29T22:07:12.963Z,2.53
2022-07-29T22:09:41.445Z,1.93
2022-07-29T22:12:16.941Z,2.23
2022-07-29T22:14:47.276Z,2.03
2022-07-29T22:17:22.109Z,2.27
2022-07-29T22:19:50.592Z,2.30
2022-07-29T22:22:31.865Z,2.10
2022-07-29T22:25:00.757Z,2.13
2022-07-29T22:27:36.017Z,1.83
2022-07-29T22:30:07.346Z,2.33
2022-07-29T22:32:43.184Z,2.00
2022-07-29T22:35:11.759Z,1.87
2022-07-29T22:37:46.996Z,2.30
2022-07-29T22:40:15.592Z,2.60
2022-07-29T22:42:50.986Z,2.70
2022-07-29T22:45:21.207Z,2.50
2022-07-29T22:47:59.426Z,2.57
2022-07-29T22:50:28.091Z,2.73
2022-07-29T22:53:02.995Z,2.87
2022-07-29T22:55:31.461Z,2.60
2022-07-29T22:58:06.224Z,2.30
2022-07-29T23:00:36.445Z,2.93
2022-07-29T23:03:11.030Z,2.30
2022-07-29T23:05:39.816Z,2.47
2022-07-29T23:08:14.873Z,2.40
2022-07-29T23:10:43.319Z,2.70
2022-07-29T23:13:19.211Z,2.90
2022-07-29T23:15:49.449Z,2.40
2022-07-29T23:18:24.925Z,2.67
2022-07-29T23:21:21.037Z,3.30
2022-07-29T23:23:55.902Z,3.10
2022-07-29T23:26:24.318Z,2.80
2022-07-29T23:28:58.921Z,2.87
2022-07-29T23:31:28.722Z,3.50
2022-07-29T23:34:04.014Z,2.90
2022-07-29T23:36:32.535Z,3.50
2022-07-29T23:39:07.252Z,3.43
2022-07-29T23:41:35.656Z,3.57
2022-07-29T23:44:11.025Z,3.20
2022-07-29T23:46:41.072Z,3.10
2022-07-29T23:49:16.148Z,3.20
2022-07-29T23:51:44.827Z,3.00
2022-07-29T23:54:19.899Z,3.50
2022-07-29T23:56:48.455Z,3.20
2022-07-29T23:59:23.057Z,3.43
